Startpagina
METAR-TAF:

METAR-TAF

Vliegvelden :

Vliegbasis Bevekom

Bevekom, België

breedte: 50-45N, lengte: 004-46E, hoogte: 105 m

Actueel weer

Dit bericht is 16 minuten geleden gemaakt, om 15:55 UTC
Wind 9 kt uit het noordoosten
Temperatuur 23°C
Vochtigheid 41%
Druk 1018 hPa
Zicht 10 km of meer

METAR: EBBE 201555Z AUTO 05009KT 9999 NCD 23/09 Q1018 BLU

Tijdstip: 18:11 (16:11 UTC)


TAF: ontbreekt

Waarnemingen en weersverwachtingen van meer dan 4000 vliegvelden (METAR en TAF).

De beschikbare stations zijn de gele en rode punten op de kaart.

Ga met uw muis naar het station om de naam te zien.

Klik dan om waarnemingen en weersverwachtingen te zien.

kaart wijzigen: klik op de groene knoppen met een zwart kruis om in te zoomen, op de groene knop met een streepje om uit te zoomen of op de groene pijlen voor aangrenzende kaarten.


METAR-TAF: